createdAt,value
2018-05-25T00:00:17.181Z,1012.72
2018-05-25T00:01:17.189Z,1012.75
2018-05-25T00:02:17.186Z,1012.74
2018-05-25T00:03:17.288Z,1012.76
2018-05-25T00:04:17.195Z,1012.72
2018-05-25T00:05:17.251Z,1012.75
2018-05-25T00:06:17.196Z,1012.75
2018-05-25T00:07:17.400Z,1012.77
2018-05-25T00:08:17.197Z,1012.78
2018-05-25T00:09:17.198Z,1012.77
2018-05-25T00:10:17.413Z,1012.80
2018-05-25T00:11:17.205Z,1012.79
2018-05-25T00:12:17.206Z,1012.78
2018-05-25T00:13:17.207Z,1012.79
2018-05-25T00:14:17.215Z,1012.80
2018-05-25T00:15:17.208Z,1012.82
2018-05-25T00:16:17.209Z,1012.79
2018-05-25T00:17:17.212Z,1012.81
2018-05-25T00:18:17.415Z,1012.82
2018-05-25T00:19:17.214Z,1012.79
2018-05-25T00:20:17.227Z,1012.80
2018-05-25T00:21:17.219Z,1012.80
2018-05-25T00:22:17.420Z,1012.81
2018-05-25T00:23:17.437Z,1012.80
2018-05-25T00:24:17.227Z,1012.81
2018-05-25T00:25:17.429Z,1012.80
2018-05-25T00:26:17.239Z,1012.82
2018-05-25T00:27:17.232Z,1012.81
2018-05-25T00:28:17.229Z,1012.81
2018-05-25T00:29:17.245Z,1012.83
2018-05-25T00:30:17.244Z,1012.80
2018-05-25T00:31:17.245Z,1012.82
2018-05-25T00:32:17.238Z,1012.83
2018-05-25T00:33:17.241Z,1012.82
2018-05-25T00:34:17.240Z,1012.84
2018-05-25T00:35:17.444Z,1012.84
2018-05-25T00:36:17.247Z,1012.88
2018-05-25T00:37:17.263Z,1012.86
2018-05-25T00:38:17.268Z,1012.84
2018-05-25T00:39:17.464Z,1012.86
2018-05-25T00:40:17.453Z,1012.86
2018-05-25T00:41:17.268Z,1012.87
2018-05-25T00:42:17.265Z,1012.84
2018-05-25T00:43:17.255Z,1012.87
2018-05-25T00:44:17.266Z,1012.84
2018-05-25T00:45:17.470Z,1012.85
2018-05-25T00:46:17.270Z,1012.83
2018-05-25T00:47:17.274Z,1012.82
2018-05-25T00:48:17.289Z,1012.82
2018-05-25T00:49:17.261Z,1012.83
2018-05-25T00:50:17.264Z,1012.84
2018-05-25T00:51:17.275Z,1012.79
2018-05-25T00:52:17.269Z,1012.80
2018-05-25T00:53:17.269Z,1012.82
2018-05-25T00:54:17.271Z,1012.79
2018-05-25T00:55:17.287Z,1012.81
2018-05-25T00:56:17.285Z,1012.80
2018-05-25T00:57:17.288Z,1012.82
2018-05-25T00:58:17.289Z,1012.83
2018-05-25T00:59:17.287Z,1012.82
2018-05-25T01:00:17.311Z,1012.84
2018-05-25T01:01:17.487Z,1012.83
2018-05-25T01:02:17.314Z,1012.83
2018-05-25T01:03:17.296Z,1012.84
2018-05-25T01:04:17.316Z,1012.87
2018-05-25T01:05:17.318Z,1012.87
2018-05-25T01:06:17.306Z,1012.89
2018-05-25T01:07:17.324Z,1012.89
2018-05-25T01:08:17.305Z,1012.90
2018-05-25T01:09:17.312Z,1012.93
2018-05-25T01:10:17.297Z,1012.91
2018-05-25T01:11:17.308Z,1012.87
2018-05-25T01:12:17.528Z,1012.88
2018-05-25T01:13:17.331Z,1012.84
2018-05-25T01:14:17.319Z,1012.87
2018-05-25T01:15:17.536Z,1012.86
2018-05-25T01:16:17.338Z,1012.89
2018-05-25T01:17:17.325Z,1012.84
2018-05-25T01:18:17.511Z,1012.86
2018-05-25T01:19:17.513Z,1012.86
2018-05-25T01:20:17.322Z,1012.85
2018-05-25T01:21:17.324Z,1012.83
2018-05-25T01:22:17.328Z,1012.84
2018-05-25T01:23:17.336Z,1012.83
2018-05-25T01:24:17.318Z,1012.84
2018-05-25T01:25:17.333Z,1012.81
2018-05-25T01:26:17.326Z,1012.80
2018-05-25T01:27:17.325Z,1012.77
2018-05-25T01:28:17.325Z,1012.79
2018-05-25T01:29:17.359Z,1012.76
2018-05-25T01:30:17.534Z,1012.80
2018-05-25T01:31:17.332Z,1012.73
2018-05-25T01:32:17.333Z,1012.71
2018-05-25T01:33:17.335Z,1012.72
2018-05-25T01:34:17.542Z,1012.71
2018-05-25T01:35:17.338Z,1012.71
2018-05-25T01:36:17.337Z,1012.68
2018-05-25T01:37:17.339Z,1012.66
2018-05-25T01:38:17.355Z,1012.66
2018-05-25T01:39:17.349Z,1012.65
2018-05-25T01:40:17.548Z,1012.63
2018-05-25T01:41:17.348Z,1012.66
2018-05-25T01:42:17.554Z,1012.62
2018-05-25T01:43:17.363Z,1012.63
2018-05-25T01:44:17.353Z,1012.64
2018-05-25T01:45:17.357Z,1012.63
2018-05-25T01:46:17.357Z,1012.65
2018-05-25T01:47:17.357Z,1012.66
2018-05-25T01:48:17.359Z,1012.59
2018-05-25T01:49:17.363Z,1012.61
2018-05-25T01:50:17.363Z,1012.65
2018-05-25T01:51:17.366Z,1012.63
2018-05-25T01:52:17.376Z,1012.62
2018-05-25T01:53:17.371Z,1012.59
2018-05-25T01:54:17.575Z,1012.61
2018-05-25T01:55:17.577Z,1012.54
2018-05-25T01:56:17.374Z,1012.53
2018-05-25T01:57:17.387Z,1012.55
2018-05-25T01:58:17.389Z,1012.54
2018-05-25T01:59:17.381Z,1012.53
2018-05-25T02:00:17.382Z,1012.52
2018-05-25T02:01:17.382Z,1012.52
2018-05-25T02:02:17.389Z,1012.53
2018-05-25T02:03:17.395Z,1012.55
2018-05-25T02:04:17.398Z,1012.52
2018-05-25T02:05:17.594Z,1012.51
2018-05-25T02:06:17.604Z,1012.50
2018-05-25T02:07:17.407Z,1012.51
2018-05-25T02:08:17.610Z,1012.49
2018-05-25T02:09:17.411Z,1012.48
2018-05-25T02:10:17.403Z,1012.49
2018-05-25T02:11:17.414Z,1012.47
2018-05-25T02:12:17.413Z,1012.46
2018-05-25T02:13:17.402Z,1012.46
2018-05-25T02:14:17.405Z,1012.44
2018-05-25T02:15:17.410Z,1012.49
2018-05-25T02:16:17.425Z,1012.49
2018-05-25T02:17:17.419Z,1012.52
2018-05-25T02:18:17.411Z,1012.55
2018-05-25T02:19:17.431Z,1012.52
2018-05-25T02:20:17.414Z,1012.53
2018-05-25T02:21:17.427Z,1012.51
2018-05-25T02:22:17.418Z,1012.52
2018-05-25T02:23:17.423Z,1012.54
2018-05-25T02:24:17.424Z,1012.55
2018-05-25T02:25:17.424Z,1012.53
2018-05-25T02:26:17.428Z,1012.57
2018-05-25T02:27:17.645Z,1012.49
2018-05-25T02:28:17.629Z,1012.46
2018-05-25T02:29:17.431Z,1012.48
2018-05-25T02:30:17.435Z,1012.47
2018-05-25T02:31:17.636Z,1012.45
2018-05-25T02:32:17.448Z,1012.44
2018-05-25T02:33:17.637Z,1012.49
2018-05-25T02:34:17.640Z,1012.45
2018-05-25T02:35:17.441Z,1012.43
2018-05-25T02:36:17.444Z,1012.45
2018-05-25T02:37:17.648Z,1012.42
2018-05-25T02:38:17.445Z,1012.42
2018-05-25T02:39:17.458Z,1012.39
2018-05-25T02:40:17.650Z,1012.40
2018-05-25T02:41:17.452Z,1012.41
2018-05-25T02:42:17.466Z,1012.38
2018-05-25T02:43:17.471Z,1012.38
2018-05-25T02:44:17.459Z,1012.39
2018-05-25T02:45:17.468Z,1012.43
2018-05-25T02:46:17.669Z,1012.41
2018-05-25T02:47:17.462Z,1012.42
2018-05-25T02:48:17.462Z,1012.42
2018-05-25T02:49:17.464Z,1012.45
2018-05-25T02:50:17.466Z,1012.42
2018-05-25T02:51:17.478Z,1012.46
2018-05-25T02:52:17.673Z,1012.42
2018-05-25T02:53:17.472Z,1012.45
2018-05-25T02:54:17.479Z,1012.44
2018-05-25T02:55:17.477Z,1012.45
2018-05-25T02:56:17.688Z,1012.43
2018-05-25T02:57:17.743Z,1012.45
2018-05-25T02:58:17.483Z,1012.46
2018-05-25T02:59:17.514Z,1012.48
2018-05-25T03:00:17.696Z,1012.50
2018-05-25T03:01:17.541Z,1012.48
2018-05-25T03:02:17.485Z,1012.48
2018-05-25T03:03:17.690Z,1012.53
2018-05-25T03:04:17.690Z,1012.49
2018-05-25T03:05:17.505Z,1012.50
2018-05-25T03:06:17.505Z,1012.46
2018-05-25T03:07:17.511Z,1012.49
2018-05-25T03:08:17.518Z,1012.46
2018-05-25T03:09:17.511Z,1012.46
2018-05-25T03:10:17.510Z,1012.50
2018-05-25T03:11:17.517Z,1012.50
2018-05-25T03:12:17.501Z,1012.50
2018-05-25T03:13:17.503Z,1012.49
2018-05-25T03:14:17.505Z,1012.49
2018-05-25T03:15:17.509Z,1012.55
2018-05-25T03:16:17.519Z,1012.52
2018-05-25T03:17:17.512Z,1012.53
2018-05-25T03:18:17.713Z,1012.56
2018-05-25T03:19:17.519Z,1012.58
2018-05-25T03:20:17.513Z,1012.62
2018-05-25T03:21:17.527Z,1012.62
2018-05-25T03:22:17.536Z,1012.64
2018-05-25T03:23:17.724Z,1012.63
2018-05-25T03:24:17.522Z,1012.65
2018-05-25T03:25:17.543Z,1012.62
2018-05-25T03:26:17.543Z,1012.61
2018-05-25T03:27:17.557Z,1012.60
2018-05-25T03:28:17.528Z,1012.59
2018-05-25T03:29:17.731Z,1012.59
2018-05-25T03:30:17.549Z,1012.57
2018-05-25T03:31:17.545Z,1012.58
2018-05-25T03:32:17.766Z,1012.57
2018-05-25T03:33:17.565Z,1012.60
2018-05-25T03:34:17.761Z,1012.56
2018-05-25T03:35:17.540Z,1012.59
2018-05-25T03:36:17.548Z,1012.61
2018-05-25T03:37:17.760Z,1012.58
2018-05-25T03:38:17.578Z,1012.59
2018-05-25T03:39:17.565Z,1012.60
2018-05-25T03:40:17.553Z,1012.63
2018-05-25T03:41:17.770Z,1012.64
2018-05-25T03:42:17.549Z,1012.66
2018-05-25T03:43:17.754Z,1012.69
2018-05-25T03:44:17.754Z,1012.70
2018-05-25T03:45:17.554Z,1012.68
2018-05-25T03:46:17.561Z,1012.71
2018-05-25T03:47:17.560Z,1012.68
2018-05-25T03:48:17.561Z,1012.73
2018-05-25T03:49:17.559Z,1012.74
2018-05-25T03:50:17.578Z,1012.74
2018-05-25T03:51:17.564Z,1012.72
2018-05-25T03:52:17.589Z,1012.74
2018-05-25T03:53:17.567Z,1012.76
2018-05-25T03:54:17.581Z,1012.73
2018-05-25T03:55:17.571Z,1012.75
2018-05-25T03:56:17.773Z,1012.75
2018-05-25T03:57:17.579Z,1012.79
2018-05-25T03:58:17.576Z,1012.76
2018-05-25T03:59:17.592Z,1012.77
2018-05-25T04:00:17.592Z,1012.78
2018-05-25T04:01:17.579Z,1012.77
2018-05-25T04:02:17.584Z,1012.75
2018-05-25T04:03:17.783Z,1012.75
2018-05-25T04:04:17.583Z,1012.76
2018-05-25T04:05:17.587Z,1012.76
2018-05-25T04:06:17.593Z,1012.78
2018-05-25T04:07:17.587Z,1012.76
2018-05-25T04:08:17.590Z,1012.75
2018-05-25T04:09:17.792Z,1012.74
2018-05-25T04:10:17.600Z,1012.76
2018-05-25T04:11:17.795Z,1012.78
2018-05-25T04:12:17.636Z,1012.76
2018-05-25T04:13:17.596Z,1012.75
2018-05-25T04:14:17.651Z,1012.75
2018-05-25T04:15:17.601Z,1012.77
2018-05-25T04:16:17.815Z,1012.78
2018-05-25T04:17:17.602Z,1012.79
2018-05-25T04:18:17.603Z,1012.79
2018-05-25T04:19:17.606Z,1012.81
2018-05-25T04:20:17.807Z,1012.79
2018-05-25T04:21:17.609Z,1012.81
2018-05-25T04:22:17.611Z,1012.83
2018-05-25T04:23:17.615Z,1012.77
2018-05-25T04:24:17.625Z,1012.81
2018-05-25T04:25:17.613Z,1012.82
2018-05-25T04:26:17.613Z,1012.86
2018-05-25T04:27:17.616Z,1012.83
2018-05-25T04:28:17.819Z,1012.85
2018-05-25T04:29:17.619Z,1012.84
2018-05-25T04:30:17.621Z,1012.88
2018-05-25T04:31:17.824Z,1012.85
2018-05-25T04:32:17.626Z,1012.84
2018-05-25T04:33:17.831Z,1012.83
2018-05-25T04:34:17.829Z,1012.85
2018-05-25T04:35:17.628Z,1012.81
2018-05-25T04:36:17.632Z,1012.83
2018-05-25T04:37:17.844Z,1012.86
2018-05-25T04:38:17.632Z,1012.89
2018-05-25T04:39:17.633Z,1012.90
2018-05-25T04:40:17.639Z,1012.90
2018-05-25T04:41:17.636Z,1012.92
2018-05-25T04:42:17.640Z,1012.94
2018-05-25T04:43:17.662Z,1012.93
2018-05-25T04:44:17.655Z,1012.98
2018-05-25T04:45:17.643Z,1012.97
2018-05-25T04:46:17.654Z,1013.00
2018-05-25T04:47:17.660Z,1013.00
2018-05-25T04:48:17.647Z,1012.99
2018-05-25T04:49:17.663Z,1012.98
2018-05-25T04:50:17.857Z,1012.99
2018-05-25T04:51:17.861Z,1013.00
2018-05-25T04:52:17.661Z,1013.03
2018-05-25T04:53:17.653Z,1012.99
2018-05-25T04:54:17.668Z,1012.98
2018-05-25T04:55:17.686Z,1012.96
2018-05-25T04:56:17.657Z,1012.97
2018-05-25T04:57:17.683Z,1012.97
2018-05-25T04:58:17.662Z,1013.00
2018-05-25T04:59:17.742Z,1012.99
2018-05-25T05:00:17.678Z,1013.03
2018-05-25T05:01:17.682Z,1013.02
2018-05-25T05:02:17.668Z,1013.04
2018-05-25T05:03:17.684Z,1013.02
2018-05-25T05:04:17.667Z,1013.05
2018-05-25T05:05:17.671Z,1013.05
2018-05-25T05:06:17.875Z,1013.04
2018-05-25T05:07:17.684Z,1013.05
2018-05-25T05:08:17.675Z,1013.07
2018-05-25T05:09:17.877Z,1013.08
2018-05-25T05:10:17.676Z,1013.02
2018-05-25T05:11:17.679Z,1013.06
2018-05-25T05:12:17.710Z,1013.02
2018-05-25T05:13:17.681Z,1013.05
2018-05-25T05:14:17.681Z,1013.04
2018-05-25T05:15:17.685Z,1013.04
2018-05-25T05:16:17.695Z,1013.05
2018-05-25T05:17:17.689Z,1013.06
2018-05-25T05:18:17.892Z,1013.06
2018-05-25T05:19:17.893Z,1013.08
2018-05-25T05:20:17.905Z,1013.05
2018-05-25T05:21:17.693Z,1013.12
2018-05-25T05:22:17.698Z,1013.11
2018-05-25T05:23:17.900Z,1013.08
2018-05-25T05:24:17.698Z,1013.10
2018-05-25T05:25:17.709Z,1013.14
2018-05-25T05:26:17.902Z,1013.07
2018-05-25T05:27:17.906Z,1013.08
2018-05-25T05:28:17.706Z,1013.10
2018-05-25T05:29:17.707Z,1013.05
2018-05-25T05:30:17.720Z,1013.08
2018-05-25T05:31:17.924Z,1013.07
2018-05-25T05:32:17.713Z,1013.06
2018-05-25T05:33:17.714Z,1013.05
2018-05-25T05:34:17.717Z,1013.06
2018-05-25T05:35:17.723Z,1013.04
2018-05-25T05:36:17.737Z,1013.04
2018-05-25T05:37:17.724Z,1013.05
2018-05-25T05:38:17.722Z,1013.04
2018-05-25T05:39:17.941Z,1013.04
2018-05-25T05:40:17.727Z,1013.05
2018-05-25T05:41:17.932Z,1013.06
2018-05-25T05:42:17.734Z,1013.06
2018-05-25T05:43:17.745Z,1013.06
2018-05-25T05:44:17.751Z,1013.04
2018-05-25T05:45:17.738Z,1013.08
2018-05-25T05:46:17.751Z,1013.08
2018-05-25T05:47:17.948Z,1013.06
2018-05-25T05:48:17.743Z,1013.03
2018-05-25T05:49:17.757Z,1013.04
2018-05-25T05:50:17.751Z,1013.04
2018-05-25T05:51:17.769Z,1013.01
2018-05-25T05:52:17.955Z,1013.02
2018-05-25T05:53:17.756Z,1013.03
2018-05-25T05:54:17.959Z,1013.03
2018-05-25T05:55:17.963Z,1013.01
2018-05-25T05:56:17.761Z,1013.03
2018-05-25T05:57:17.774Z,1013.01
2018-05-25T05:58:17.766Z,1013.03
2018-05-25T05:59:17.770Z,1013.02
2018-05-25T06:00:17.973Z,1013.01
2018-05-25T06:01:17.976Z,1013.01
2018-05-25T06:02:17.777Z,1013.02
2018-05-25T06:03:17.779Z,1013.01
2018-05-25T06:04:17.855Z,1012.99
2018-05-25T06:05:17.815Z,1013.01
2018-05-25T06:06:17.787Z,1012.99
2018-05-25T06:07:17.795Z,1013.00
2018-05-25T06:08:17.802Z,1013.01
2018-05-25T06:09:17.798Z,1013.03
2018-05-25T06:10:17.797Z,1013.04
2018-05-25T06:11:17.798Z,1013.08
2018-05-25T06:12:17.811Z,1013.09
2018-05-25T06:13:17.802Z,1013.12
2018-05-25T06:14:17.816Z,1013.12
2018-05-25T06:15:18.015Z,1013.15
2018-05-25T06:16:18.025Z,1013.18
2018-05-25T06:17:17.815Z,1013.16
2018-05-25T06:18:17.829Z,1013.21
2018-05-25T06:19:17.832Z,1013.20
2018-05-25T06:20:18.029Z,1013.24
2018-05-25T06:21:17.826Z,1013.22
2018-05-25T06:22:17.840Z,1013.23
2018-05-25T06:23:17.847Z,1013.25
2018-05-25T06:24:17.837Z,1013.25
2018-05-25T06:25:17.885Z,1013.23
2018-05-25T06:26:17.850Z,1013.23
2018-05-25T06:27:17.869Z,1013.24
2018-05-25T06:28:18.046Z,1013.29
2018-05-25T06:29:17.850Z,1013.34
2018-05-25T06:30:17.864Z,1013.34
2018-05-25T06:31:17.865Z,1013.32
2018-05-25T06:32:17.870Z,1013.35
2018-05-25T06:33:17.859Z,1013.34
2018-05-25T06:34:17.866Z,1013.28
2018-05-25T06:35:17.878Z,1013.27
2018-05-25T06:36:18.085Z,1013.31
2018-05-25T06:37:18.095Z,1013.33
2018-05-25T06:38:17.876Z,1013.35
2018-05-25T06:39:17.888Z,1013.37
2018-05-25T06:40:17.882Z,1013.36
2018-05-25T06:41:18.100Z,1013.38
2018-05-25T06:42:17.887Z,1013.39
2018-05-25T06:43:18.114Z,1013.45
2018-05-25T06:44:17.895Z,1013.40
2018-05-25T06:45:18.104Z,1013.41
2018-05-25T06:46:17.913Z,1013.42
2018-05-25T06:47:18.106Z,1013.42
2018-05-25T06:48:17.910Z,1013.45
2018-05-25T06:49:17.914Z,1013.41
2018-05-25T06:50:17.916Z,1013.39
2018-05-25T06:51:17.918Z,1013.39
2018-05-25T06:52:17.918Z,1013.40
2018-05-25T06:53:18.123Z,1013.38
2018-05-25T06:54:17.944Z,1013.40
2018-05-25T06:55:17.928Z,1013.42
2018-05-25T06:56:17.932Z,1013.36
2018-05-25T06:57:17.939Z,1013.44
2018-05-25T06:58:17.954Z,1013.43
2018-05-25T06:59:17.954Z,1013.45
2018-05-25T07:00:17.945Z,1013.44
2018-05-25T07:01:17.963Z,1013.48
2018-05-25T07:02:18.154Z,1013.48
2018-05-25T07:03:17.959Z,1013.50
2018-05-25T07:04:17.970Z,1013.50
2018-05-25T07:05:17.970Z,1013.48
2018-05-25T07:06:18.170Z,1013.47
2018-05-25T07:07:17.970Z,1013.45
2018-05-25T07:08:17.984Z,1013.49
2018-05-25T07:09:17.979Z,1013.49
2018-05-25T07:10:17.978Z,1013.49
2018-05-25T07:11:17.981Z,1013.49
2018-05-25T07:12:17.985Z,1013.48
2018-05-25T07:13:18.002Z,1013.55
2018-05-25T07:14:17.991Z,1013.55
2018-05-25T07:15:17.996Z,1013.55
2018-05-25T07:16:18.199Z,1013.53
2018-05-25T07:17:18.003Z,1013.55
2018-05-25T07:18:18.006Z,1013.55
2018-05-25T07:19:18.021Z,1013.54
2018-05-25T07:20:18.014Z,1013.55
2018-05-25T07:21:18.017Z,1013.53
2018-05-25T07:22:18.019Z,1013.53
2018-05-25T07:23:18.226Z,1013.54
2018-05-25T07:24:18.027Z,1013.50
2018-05-25T07:25:18.232Z,1013.49
2018-05-25T07:26:18.291Z,1013.54
2018-05-25T07:27:18.255Z,1013.55
2018-05-25T07:28:18.040Z,1013.56
2018-05-25T07:29:18.045Z,1013.57
2018-05-25T07:30:18.248Z,1013.58
2018-05-25T07:31:18.061Z,1013.56
2018-05-25T07:32:18.055Z,1013.56
2018-05-25T07:33:18.068Z,1013.53
2018-05-25T07:34:18.266Z,1013.55
2018-05-25T07:35:18.266Z,1013.56
2018-05-25T07:36:18.068Z,1013.57
2018-05-25T07:37:18.083Z,1013.53
2018-05-25T07:38:18.094Z,1013.59
2018-05-25T07:39:18.324Z,1013.59
2018-05-25T07:40:18.078Z,1013.58
2018-05-25T07:41:18.101Z,1013.59
2018-05-25T07:42:18.088Z,1013.63
2018-05-25T07:43:18.304Z,1013.59
2018-05-25T07:44:18.305Z,1013.63
2018-05-25T07:45:18.097Z,1013.63
2018-05-25T07:46:18.111Z,1013.62
2018-05-25T07:47:18.307Z,1013.65
2018-05-25T07:48:18.110Z,1013.67
2018-05-25T07:49:18.112Z,1013.74
2018-05-25T07:50:18.116Z,1013.70
2018-05-25T07:51:18.130Z,1013.73
2018-05-25T07:52:18.151Z,1013.74
2018-05-25T07:53:18.135Z,1013.72
2018-05-25T07:54:18.174Z,1013.74
2018-05-25T07:55:18.334Z,1013.78
2018-05-25T07:56:18.337Z,1013.80
2018-05-25T07:57:18.152Z,1013.75
2018-05-25T07:58:18.356Z,1013.77
2018-05-25T07:59:18.148Z,1013.77
2018-05-25T08:00:18.202Z,1013.77
2018-05-25T08:01:18.151Z,1013.82
2018-05-25T08:02:18.166Z,1013.81
2018-05-25T08:03:18.169Z,1013.82
2018-05-25T08:04:18.177Z,1013.83
2018-05-25T08:05:18.369Z,1013.79
2018-05-25T08:06:18.379Z,1013.83
2018-05-25T08:07:18.188Z,1013.85
2018-05-25T08:08:18.188Z,1013.82
2018-05-25T08:09:18.182Z,1013.84
2018-05-25T08:10:18.185Z,1013.85
2018-05-25T08:11:18.186Z,1013.84
2018-05-25T08:12:18.194Z,1013.82
2018-05-25T08:13:18.193Z,1013.84
2018-05-25T08:14:18.408Z,1013.85
2018-05-25T08:15:18.202Z,1013.82
2018-05-25T08:16:18.420Z,1013.80
2018-05-25T08:17:18.217Z,1013.81
2018-05-25T08:18:18.211Z,1013.83
2018-05-25T08:19:18.234Z,1013.83
2018-05-25T08:20:18.236Z,1013.83
2018-05-25T08:21:18.235Z,1013.83
2018-05-25T08:22:18.248Z,1013.83
2018-05-25T08:23:18.228Z,1013.82
2018-05-25T08:24:18.435Z,1013.85
2018-05-25T08:25:18.237Z,1013.87
2018-05-25T08:26:18.245Z,1013.83
2018-05-25T08:27:18.261Z,1013.87
2018-05-25T08:28:18.256Z,1013.86
2018-05-25T08:29:18.250Z,1013.87
2018-05-25T08:30:18.465Z,1013.87
2018-05-25T08:31:18.256Z,1013.87
2018-05-25T08:32:18.274Z,1013.85
2018-05-25T08:33:18.277Z,1013.87
2018-05-25T09:01:10.235Z,1013.86
2018-05-25T09:06:10.425Z,1013.83
2018-05-25T09:07:10.251Z,1013.84
2018-05-25T09:08:10.227Z,1013.85
2018-05-25T09:09:10.429Z,1013.87
2018-05-25T09:10:10.433Z,1013.85
2018-05-25T09:11:10.240Z,1013.83
2018-05-25T09:12:10.484Z,1013.80
2018-05-25T09:13:10.246Z,1013.84
2018-05-25T09:14:10.237Z,1013.79
2018-05-25T09:15:10.240Z,1013.84
2018-05-25T09:16:10.447Z,1013.80
2018-05-25T09:17:10.244Z,1013.78
2018-05-25T09:18:10.249Z,1013.77
2018-05-25T09:19:10.257Z,1013.82
2018-05-25T09:20:10.255Z,1013.79
2018-05-25T09:21:10.269Z,1013.81
2018-05-25T09:22:10.261Z,1013.85
2018-05-25T09:23:10.262Z,1013.84
2018-05-25T09:24:10.464Z,1013.85
2018-05-25T09:25:10.266Z,1013.84
2018-05-25T09:26:10.274Z,1013.81
2018-05-25T09:27:10.480Z,1013.82
2018-05-25T09:28:10.479Z,1013.80
2018-05-25T09:29:10.288Z,1013.80
2018-05-25T09:30:10.282Z,1013.83
2018-05-25T09:31:10.288Z,1013.80
2018-05-25T09:32:10.288Z,1013.81
2018-05-25T09:33:10.303Z,1013.80
2018-05-25T09:34:10.296Z,1013.81
2018-05-25T09:35:10.512Z,1013.79
2018-05-25T09:36:10.301Z,1013.82
2018-05-25T09:37:10.539Z,1013.80
2018-05-25T09:38:10.316Z,1013.75
2018-05-25T09:39:10.314Z,1013.78
2018-05-25T09:40:10.315Z,1013.75
2018-05-25T09:41:10.319Z,1013.77
2018-05-25T09:42:10.328Z,1013.75
2018-05-25T09:43:10.530Z,1013.80
2018-05-25T09:44:10.352Z,1013.79
2018-05-25T09:45:10.337Z,1013.78
2018-05-25T09:46:10.338Z,1013.77
2018-05-25T09:47:10.544Z,1013.76
2018-05-25T09:48:10.345Z,1013.75
2018-05-25T09:49:10.356Z,1013.77
2018-05-25T09:50:10.359Z,1013.75
2018-05-25T09:51:10.358Z,1013.69
2018-05-25T09:52:10.562Z,1013.74
2018-05-25T09:53:10.370Z,1013.74
2018-05-25T09:54:10.571Z,1013.73
2018-05-25T09:55:10.378Z,1013.79
2018-05-25T09:56:10.445Z,1013.79
2018-05-25T09:57:10.584Z,1013.73
2018-05-25T09:58:10.389Z,1013.73
2018-05-25T09:59:10.592Z,1013.75
2018-05-25T10:00:10.393Z,1013.73
2018-05-25T10:01:10.600Z,1013.73
2018-05-25T10:02:10.413Z,1013.76
2018-05-25T10:03:10.464Z,1013.75
2018-05-25T10:04:10.418Z,1013.75
2018-05-25T10:05:10.413Z,1013.76
2018-05-25T10:06:10.629Z,1013.78
2018-05-25T10:07:10.425Z,1013.72
2018-05-25T10:08:10.625Z,1013.75
2018-05-25T10:09:10.428Z,1013.78
2018-05-25T10:10:10.439Z,1013.78
2018-05-25T10:11:10.453Z,1013.73
2018-05-25T10:12:10.454Z,1013.75
2018-05-25T10:13:10.449Z,1013.76
2018-05-25T10:14:10.450Z,1013.73
2018-05-25T10:15:10.452Z,1013.76
2018-05-25T10:16:10.457Z,1013.73
2018-05-25T10:17:10.663Z,1013.74
2018-05-25T10:18:10.475Z,1013.72
2018-05-25T10:19:10.699Z,1013.72
2018-05-25T10:20:10.488Z,1013.71
2018-05-25T10:21:10.478Z,1013.72
2018-05-25T10:22:10.684Z,1013.70
2018-05-25T10:23:10.500Z,1013.66
2018-05-25T10:24:10.691Z,1013.67
2018-05-25T10:25:10.506Z,1013.68
2018-05-25T10:26:10.516Z,1013.66
2018-05-25T10:27:10.531Z,1013.63
2018-05-25T10:28:10.707Z,1013.61
2018-05-25T10:29:10.526Z,1013.63
2018-05-25T10:30:10.515Z,1013.63
2018-05-25T10:31:10.521Z,1013.64
2018-05-25T10:32:10.550Z,1013.62
2018-05-25T10:33:10.558Z,1013.58
2018-05-25T10:34:10.537Z,1013.55
2018-05-25T10:35:10.563Z,1013.57
2018-05-25T10:36:10.567Z,1013.55
2018-05-25T10:37:10.760Z,1013.59
2018-05-25T10:38:10.549Z,1013.58
2018-05-25T10:39:10.554Z,1013.58
2018-05-25T10:40:10.570Z,1013.52
2018-05-25T10:41:10.575Z,1013.52
2018-05-25T10:42:10.569Z,1013.50
2018-05-25T10:43:10.581Z,1013.50
2018-05-25T10:44:10.776Z,1013.52
2018-05-25T10:45:10.581Z,1013.50
2018-05-25T10:46:10.602Z,1013.50
2018-05-25T10:47:10.587Z,1013.54
2018-05-25T10:48:10.591Z,1013.51
2018-05-25T10:49:10.612Z,1013.52
2018-05-25T10:50:10.625Z,1013.51
2018-05-25T10:51:10.604Z,1013.51
2018-05-25T10:52:10.810Z,1013.55
2018-05-25T10:53:10.626Z,1013.54
2018-05-25T10:54:10.617Z,1013.56
2018-05-25T10:55:10.625Z,1013.53
2018-05-25T10:56:10.628Z,1013.50
2018-05-25T10:57:10.632Z,1013.53
2018-05-25T10:58:10.650Z,1013.50
2018-05-25T10:59:10.640Z,1013.55
2018-05-25T11:00:10.645Z,1013.50
2018-05-25T11:01:10.647Z,1013.53
2018-05-25T11:02:10.654Z,1013.49
2018-05-25T11:03:10.668Z,1013.54
2018-05-25T11:04:10.865Z,1013.50
2018-05-25T11:05:10.665Z,1013.46
2018-05-25T11:06:10.669Z,1013.46
2018-05-25T11:07:10.877Z,1013.45
2018-05-25T11:08:10.681Z,1013.41
2018-05-25T11:09:10.682Z,1013.42
2018-05-25T11:10:10.900Z,1013.41
2018-05-25T11:11:10.695Z,1013.44
2018-05-25T11:12:10.721Z,1013.43
2018-05-25T11:13:10.907Z,1013.39
2018-05-25T11:14:10.909Z,1013.37
2018-05-25T11:15:10.712Z,1013.41
2018-05-25T11:16:10.724Z,1013.37
2018-05-25T11:17:10.733Z,1013.36
2018-05-25T11:18:10.722Z,1013.34
2018-05-25T11:19:10.753Z,1013.33
2018-05-25T11:20:10.933Z,1013.32
2018-05-25T11:21:10.739Z,1013.29
2018-05-25T11:22:10.755Z,1013.34
2018-05-25T11:23:10.747Z,1013.35
2018-05-25T11:24:10.754Z,1013.29
2018-05-25T11:25:10.971Z,1013.33
2018-05-25T11:26:10.759Z,1013.28
2018-05-25T11:27:10.762Z,1013.29
2018-05-25T11:28:10.770Z,1013.25
2018-05-25T11:29:10.773Z,1013.25
2018-05-25T11:30:10.978Z,1013.26
2018-05-25T11:31:10.788Z,1013.28
2018-05-25T11:32:10.997Z,1013.28
2018-05-25T11:33:11.020Z,1013.30
2018-05-25T11:34:10.795Z,1013.32
2018-05-25T11:35:10.799Z,1013.29
2018-05-25T11:36:10.804Z,1013.27
2018-05-25T11:37:10.836Z,1013.31
2018-05-25T11:38:10.812Z,1013.30
2018-05-25T11:39:10.824Z,1013.29
2018-05-25T11:40:11.030Z,1013.31
2018-05-25T11:41:10.831Z,1013.30
2018-05-25T11:42:10.856Z,1013.29
2018-05-25T11:43:11.056Z,1013.30
2018-05-25T11:44:11.052Z,1013.30
2018-05-25T11:45:11.046Z,1013.25
2018-05-25T11:46:11.049Z,1013.21
2018-05-25T11:47:10.852Z,1013.17
2018-05-25T11:48:10.858Z,1013.16
2018-05-25T11:49:10.861Z,1013.17
2018-05-25T11:50:10.890Z,1013.16
2018-05-25T11:51:10.939Z,1013.11
2018-05-25T11:52:10.882Z,1013.13
2018-05-25T11:53:10.892Z,1013.09
2018-05-25T11:54:10.886Z,1013.06
2018-05-25T11:55:11.091Z,1013.07
2018-05-25T11:56:10.892Z,1013.05
2018-05-25T11:57:11.115Z,1013.01
2018-05-25T11:58:10.903Z,1013.01
2018-05-25T11:59:10.906Z,1013.00
2018-05-25T12:00:11.111Z,1013.00
2018-05-25T12:01:10.919Z,1012.98
2018-05-25T12:02:10.934Z,1013.00
2018-05-25T12:03:10.923Z,1012.97
2018-05-25T12:04:10.935Z,1013.04
2018-05-25T12:05:10.946Z,1013.00
2018-05-25T12:06:10.935Z,1013.08
2018-05-25T12:07:10.968Z,1013.09
2018-05-25T12:08:11.145Z,1013.07
2018-05-25T12:09:11.159Z,1013.07
2018-05-25T12:10:10.975Z,1013.11
2018-05-25T12:11:10.959Z,1013.08
2018-05-25T12:12:10.976Z,1013.06
2018-05-25T12:13:10.991Z,1013.10
2018-05-25T12:14:10.996Z,1013.07
2018-05-25T12:15:11.177Z,1013.04
2018-05-25T12:16:10.977Z,1013.06
2018-05-25T12:17:11.002Z,1013.06
2018-05-25T12:18:11.195Z,1013.10
2018-05-25T12:19:11.196Z,1013.11
2018-05-25T12:20:10.997Z,1013.10
2018-05-25T12:21:11.000Z,1013.09
2018-05-25T12:22:11.019Z,1013.05
2018-05-25T12:23:11.015Z,1013.06
2018-05-25T12:24:11.026Z,1013.08
2018-05-25T12:25:11.027Z,1013.06
2018-05-25T12:26:11.239Z,1013.03
2018-05-25T12:27:11.025Z,1013.05
2018-05-25T12:28:11.307Z,1013.08
2018-05-25T12:29:11.247Z,1013.08
2018-05-25T12:30:11.057Z,1013.09
2018-05-25T12:31:11.076Z,1013.11
2018-05-25T12:32:11.046Z,1013.13
2018-05-25T12:33:11.049Z,1013.15
2018-05-25T12:34:11.101Z,1013.12
2018-05-25T12:35:11.069Z,1013.14
2018-05-25T12:36:11.074Z,1013.11